Time;durP1;ratioP1;P1;durP2;ratioP2;P2;SDS_P1;SDS_P2;PMS_P1;PMS_P2;Temp;Humidity;BMP_temperature;BMP_pressure;BME280_temperature;BME280_humidity;BME280_pressure;Samples;Min_cycle;Max_cycle;Signal;HPM_P1;HPM_P2
2022/05/12 00:00:22;;;;;;;5.07;0.70;;;11.20;99.90;;;;;;5020649;28;20486;-77
2022/05/12 00:02:47;;;;;;;1.05;0.25;;;12.50;99.90;;;;;;5018647;28;20045;-78
2022/05/12 00:05:14;;;;;;;2.67;0.30;;;11.10;99.90;;;;;;5018429;28;20416;-78
2022/05/12 00:07:41;;;;;;;4.57;0.88;;;11.20;99.90;;;;;;5006607;28;20540;-77
2022/05/12 00:10:08;;;;;;;1.67;0.32;;;11.10;99.90;;;;;;5004491;28;20064;-80
2022/05/12 00:12:35;;;;;;;3.22;0.55;;;11.10;99.90;;;;;;5043850;28;20050;-79
2022/05/12 00:15:03;;;;;;;1.92;0.50;;;10.80;99.90;;;;;;5025201;28;20493;-80
2022/05/12 00:17:28;;;;;;;2.63;0.50;;;10.70;99.90;;;;;;5036843;28;20043;-78
2022/05/12 00:19:54;;;;;;;5.53;0.60;;;10.80;99.90;;;;;;5036129;28;20030;-78
2022/05/12 00:22:20;;;;;;;5.25;0.60;;;12.20;99.90;;;;;;5037836;28;20041;-80
2022/05/12 00:24:45;;;;;;;3.47;0.60;;;10.90;99.90;;;;;;5022051;28;20037;-80
2022/05/12 00:27:13;;;;;;;1.38;0.40;;;10.90;99.90;;;;;;5008815;28;20485;-81
2022/05/12 00:29:38;;;;;;;3.80;0.55;;;10.80;99.90;;;;;;5034771;28;20051;-77
2022/05/12 00:32:04;;;;;;;4.05;0.50;;;12.00;99.90;;;;;;5017294;28;20033;-80
2022/05/12 00:34:30;;;;;;;4.20;0.73;;;10.80;99.90;;;;;;5011123;28;20116;-80
2022/05/12 00:36:55;;;;;;;4.78;0.45;;;10.80;99.90;;;;;;5039037;28;20068;-78
2022/05/12 00:39:21;;;;;;;3.40;0.80;;;10.70;99.90;;;;;;5025397;28;20087;-81
2022/05/12 00:41:47;;;;;;;2.95;0.50;;;11.80;99.90;;;;;;5014789;28;20041;-80
2022/05/12 00:44:15;;;;;;;3.05;0.73;;;10.20;99.90;;;;;;5029065;28;20412;-77
2022/05/12 00:46:43;;;;;;;3.70;0.70;;;11.60;99.90;;;;;;5041321;28;20037;-80
2022/05/12 00:49:24;;;;;;;3.47;0.50;;;9.50;99.90;;;;;;5012968;28;20099;-79
2022/05/12 00:52:07;;;;;;;2.00;0.65;;;9.20;99.90;;;;;;5040096;28;20397;-79
2022/05/12 00:54:38;;;;;;;2.33;0.50;;;10.50;99.90;;;;;;5042489;28;20583;-80
2022/05/12 00:57:06;;;;;;;4.53;0.38;;;11.20;99.90;;;;;;5027031;28;20037;-81
2022/05/12 00:59:34;;;;;;;3.60;1.15;;;10.50;99.90;;;;;;5023752;28;20120;-79
2022/05/12 01:02:02;;;;;;;3.10;0.85;;;11.70;99.90;;;;;;5021360;28;20083;-81
2022/05/12 01:04:31;;;;;;;3.20;0.60;;;10.40;99.90;;;;;;5010691;28;20052;-79
2022/05/12 01:06:56;;;;;;;3.58;0.50;;;10.30;99.90;;;;;;5027944;28;20522;-79
2022/05/12 01:09:22;;;;;;;6.53;0.50;;;11.30;99.90;;;;;;5012018;28;20040;-81
2022/05/12 01:11:49;;;;;;;5.82;1.38;;;10.20;99.90;;;;;;5026409;28;20433;-79
2022/05/12 01:14:15;;;;;;;7.22;0.65;;;10.30;99.90;;;;;;5021039;28;20064;-77
2022/05/12 01:16:48;;;;;;;2.20;0.82;;;11.10;99.90;;;;;;5026514;28;20045;-81
2022/05/12 01:19:17;;;;;;;4.15;0.68;;;10.20;99.90;;;;;;5026591;28;20037;-81
2022/05/12 01:21:43;;;;;;;5.60;0.70;;;10.20;99.90;;;;;;5043115;28;20052;-80
2022/05/12 01:24:10;;;;;;;2.58;0.60;;;10.20;99.90;;;;;;5005334;28;20041;-80
2022/05/12 01:26:35;;;;;;;4.10;0.70;;;10.20;99.90;;;;;;5015865;28;20071;-78
2022/05/12 01:29:01;;;;;;;3.65;0.80;;;10.10;99.90;;;;;;5022903;28;20138;-80
2022/05/12 01:31:27;;;;;;;5.00;1.30;;;9.90;99.90;;;;;;5009091;28;20045;-80
2022/05/12 01:33:53;;;;;;;5.75;1.00;;;10.80;99.90;;;;;;5005311;28;20498;-80
2022/05/12 01:36:20;;;;;;;2.45;0.80;;;10.10;99.90;;;;;;5008904;28;20045;-80
2022/05/12 01:38:47;;;;;;;4.03;1.00;;;9.80;99.90;;;;;;5022450;28;20045;-80
2022/05/12 01:41:13;;;;;;;4.75;0.80;;;10.10;99.90;;;;;;5006842;28;20068;-80
2022/05/12 01:43:39;;;;;;;3.25;0.80;;;10.00;99.90;;;;;;5008964;28;20068;-79
2022/05/12 01:46:04;;;;;;;4.40;0.55;;;10.00;99.90;;;;;;5029720;28;20497;-80
2022/05/12 01:48:30;;;;;;;4.35;0.80;;;9.70;99.90;;;;;;5039133;28;20055;-81
2022/05/12 01:50:55;;;;;;;6.40;0.93;;;11.50;99.90;;;;;;5020744;28;20038;-78
2022/05/12 01:53:21;;;;;;;2.92;1.00;;;9.70;99.90;;;;;;5023355;28;20033;-79
2022/05/12 01:55:49;;;;;;;4.78;1.02;;;11.00;99.90;;;;;;5009734;28;20289;-80
2022/05/12 01:58:17;;;;;;;5.38;1.20;;;10.00;99.90;;;;;;5023044;28;20037;-80
2022/05/12 02:00:43;;;;;;;4.72;0.95;;;9.90;99.90;;;;;;5038880;28;20036;-78
2022/05/12 02:03:09;;;;;;;7.97;1.00;;;9.70;99.90;;;;;;5019738;28;20464;-80
2022/05/12 02:05:36;;;;;;;3.42;0.88;;;9.90;99.90;;;;;;5008223;28;20547;-81
2022/05/12 02:08:03;;;;;;;3.15;1.13;;;9.70;99.90;;;;;;5015750;28;20055;-81
2022/05/12 02:10:32;;;;;;;3.08;0.85;;;9.90;99.90;;;;;;5021789;28;20055;-81
2022/05/12 02:12:58;;;;;;;3.00;1.23;;;9.80;99.90;;;;;;5010360;28;20132;-80
2022/05/12 02:15:24;;;;;;;5.78;1.67;;;9.80;99.90;;;;;;5006800;28;20647;-80
2022/05/12 02:17:49;;;;;;;4.18;1.10;;;9.70;99.90;;;;;;5024878;28;20030;-81
2022/05/12 02:20:18;;;;;;;5.75;1.52;;;9.80;99.90;;;;;;5026811;28;20051;-81
2022/05/12 02:22:43;;;;;;;4.03;1.10;;;9.70;99.90;;;;;;5038863;28;20032;-81
2022/05/12 02:25:10;;;;;;;6.05;1.63;;;11.00;99.90;;;;;;5009603;28;20037;-79
2022/05/12 02:27:36;;;;;;;5.13;1.75;;;9.30;99.90;;;;;;5028622;28;20047;-80
2022/05/12 02:30:03;;;;;;;4.38;1.63;;;11.00;99.90;;;;;;5019364;28;20045;-79
2022/05/12 02:32:29;;;;;;;4.53;1.45;;;9.60;99.90;;;;;;5044694;28;20073;-79
2022/05/12 02:34:59;;;;;;;3.92;1.50;;;9.60;99.90;;;;;;5021482;28;20068;-78
2022/05/12 02:37:24;;;;;;;6.10;1.33;;;10.10;99.90;;;;;;5027301;28;20475;-76
2022/05/12 02:39:50;;;;;;;6.15;1.85;;;9.60;99.90;;;;;;5007971;28;20048;-77
2022/05/12 02:42:16;;;;;;;5.45;2.03;;;9.10;99.90;;;;;;5006675;28;20048;-77
2022/05/12 02:44:42;;;;;;;10.50;2.70;;;10.50;99.90;;;;;;5022860;28;20053;-79
2022/05/12 02:47:08;;;;;;;9.25;2.88;;;9.60;99.90;;;;;;5005972;28;20037;-79
2022/05/12 02:49:35;;;;;;;6.45;2.00;;;9.50;99.90;;;;;;5039914;28;20051;-80
2022/05/12 02:52:00;;;;;;;8.35;2.38;;;9.30;99.90;;;;;;5039139;28;20047;-79
2022/05/12 02:54:26;;;;;;;8.13;2.20;;;10.80;99.90;;;;;;5021255;28;20061;-79
2022/05/12 02:56:55;;;;;;;8.57;2.28;;;9.50;99.90;;;;;;5027195;28;20090;-77
2022/05/12 02:59:22;;;;;;;13.35;2.92;;;9.40;99.90;;;;;;5021457;28;20052;-80
2022/05/12 03:01:47;;;;;;;5.93;2.22;;;9.30;99.90;;;;;;5006802;28;20091;-80
2022/05/12 03:04:13;;;;;;;8.77;2.53;;;9.40;99.90;;;;;;5023026;28;20531;-79
2022/05/12 03:06:39;;;;;;;9.27;2.20;;;9.40;99.90;;;;;;5004862;28;20041;-79
2022/05/12 03:09:06;;;;;;;7.43;3.15;;;10.60;99.90;;;;;;5017103;28;20123;-79
2022/05/12 03:11:32;;;;;;;9.43;3.33;;;11.00;99.90;;;;;;5039889;28;20504;-78
2022/05/12 03:13:59;;;;;;;13.02;2.97;;;10.60;99.90;;;;;;5018607;28;20054;-78
2022/05/12 03:16:25;;;;;;;7.18;2.70;;;9.40;99.90;;;;;;5027171;28;20041;-79
2022/05/12 03:18:53;;;;;;;6.07;2.03;;;9.30;99.90;;;;;;5027230;28;20045;-77
2022/05/12 03:21:20;;;;;;;6.30;2.55;;;9.40;99.90;;;;;;5035518;28;20037;-80
2022/05/12 03:23:47;;;;;;;9.15;2.53;;;9.40;99.90;;;;;;5045034;28;20053;-79
2022/05/12 03:26:13;;;;;;;8.60;2.88;;;9.40;99.90;;;;;;5025110;28;20044;-79
2022/05/12 03:28:40;;;;;;;11.52;3.20;;;9.30;99.90;;;;;;5020797;28;20055;-79
2022/05/12 03:31:07;;;;;;;8.23;2.72;;;11.20;99.90;;;;;;5042061;28;20033;-80
2022/05/12 03:33:33;;;;;;;6.30;2.38;;;9.40;99.90;;;;;;5005759;28;20103;-80
2022/05/12 03:35:59;;;;;;;9.52;2.65;;;8.00;99.90;;;;;;5022837;28;20033;-80
2022/05/12 03:38:25;;;;;;;8.27;2.60;;;8.80;99.90;;;;;;5041024;28;20120;-79
2022/05/12 03:40:51;;;;;;;7.05;2.45;;;9.30;99.90;;;;;;5022032;28;20032;-76
2022/05/12 03:46:02;;;;;;;;;;;9.10;99.90;;;;;;5030632;28;20053;-77
2022/05/12 03:48:28;;;;;;;7.68;3.15;;;9.20;99.90;;;;;;5005591;28;20222;-79
2022/05/12 03:50:54;;;;;;;8.88;3.15;;;8.30;99.90;;;;;;5039018;28;20035;-80
2022/05/12 03:53:24;;;;;;;7.13;2.50;;;9.20;99.90;;;;;;5025244;28;20444;-79
2022/05/12 03:55:50;;;;;;;13.25;3.80;;;9.20;99.90;;;;;;5005925;28;20049;-80
2022/05/12 03:58:16;;;;;;;10.98;3.08;;;8.10;99.90;;;;;;5021795;28;20500;-78
2022/05/12 04:00:41;;;;;;;8.20;3.45;;;9.20;99.90;;;;;;5023875;28;20047;-78
2022/05/12 04:03:07;;;;;;;15.40;3.90;;;9.20;99.90;;;;;;5001391;28;20045;-78
2022/05/12 04:05:33;;;;;;;11.90;4.20;;;9.30;99.90;;;;;;5039257;28;20408;-79
2022/05/12 04:07:59;;;;;;;11.48;3.35;;;9.30;99.90;;;;;;5021900;28;20036;-79
2022/05/12 04:10:26;;;;;;;11.07;3.33;;;9.30;99.90;;;;;;5021208;28;20139;-80
2022/05/12 04:12:52;;;;;;;10.88;3.65;;;8.10;99.90;;;;;;5019314;28;20038;-77
2022/05/12 04:15:20;;;;;;;11.45;3.67;;;10.50;99.90;;;;;;5018732;28;20048;-78
2022/05/12 04:17:58;;;;;;;13.07;4.18;;;9.30;99.90;;;;;;5019902;28;20515;-80
2022/05/12 04:20:24;;;;;;;15.43;4.25;;;9.40;99.90;;;;;;5010262;28;20136;-79
2022/05/12 04:22:50;;;;;;;14.43;4.13;;;9.40;99.90;;;;;;5013738;28;20033;-79
2022/05/12 04:25:16;;;;;;;12.07;4.25;;;10.70;99.90;;;;;;5005171;28;20059;-79
2022/05/12 04:27:42;;;;;;;7.38;3.60;;;9.40;99.90;;;;;;5020821;28;20045;-78
2022/05/12 04:30:11;;;;;;;9.95;4.32;;;10.20;99.90;;;;;;5033930;28;20398;-79
2022/05/12 04:32:37;;;;;;;9.82;3.92;;;9.50;99.90;;;;;;5019798;28;20409;-78
2022/05/12 04:35:12;;;;;;;11.43;4.20;;;9.50;99.90;;;;;;5002329;28;20486;-79
2022/05/12 04:37:41;;;;;;;14.88;4.07;;;9.50;99.90;;;;;;5043352;28;20052;-79
2022/05/12 04:40:19;;;;;;;19.77;5.72;;;10.70;99.90;;;;;;5018059;28;20579;-78
2022/05/12 04:42:47;;;;;;;12.35;4.32;;;9.50;99.90;;;;;;5020866;28;20041;-78
2022/05/12 04:45:14;;;;;;;12.63;4.28;;;9.50;99.90;;;;;;5021192;28;20507;-78
2022/05/12 04:47:44;;;;;;;8.30;4.10;;;10.60;99.90;;;;;;5005610;28;20090;-80
2022/05/12 04:50:12;;;;;;;15.10;5.22;;;9.50;99.90;;;;;;5002245;28;20401;-79
2022/05/12 04:52:39;;;;;;;12.65;4.63;;;9.60;99.90;;;;;;5002425;28;20152;-79
2022/05/12 04:55:05;;;;;;;10.52;4.97;;;9.50;99.90;;;;;;5021641;28;20033;-78
2022/05/12 04:57:36;;;;;;;15.13;5.03;;;9.60;99.90;;;;;;5022210;28;20037;-79
2022/05/12 05:00:03;;;;;;;16.13;4.85;;;9.60;99.90;;;;;;5029278;28;20133;-78
2022/05/12 05:02:29;;;;;;;11.18;4.70;;;9.60;99.90;;;;;;5013988;28;20079;-77
2022/05/12 05:04:54;;;;;;;12.02;4.88;;;9.70;99.90;;;;;;5003411;28;20669;-78
2022/05/12 05:07:22;;;;;;;14.48;5.68;;;11.00;99.90;;;;;;5007756;28;20505;-79
2022/05/12 05:09:48;;;;;;;13.05;4.63;;;9.80;99.90;;;;;;5020358;28;20386;-77
2022/05/12 05:12:14;;;;;;;9.15;5.00;;;11.20;99.90;;;;;;5002185;28;20040;-78
2022/05/12 05:14:39;;;;;;;12.15;5.40;;;9.40;99.90;;;;;;5013570;28;20049;-78
2022/05/12 05:17:05;;;;;;;9.38;4.68;;;9.70;99.90;;;;;;5036101;28;20044;-76
2022/05/12 05:19:31;;;;;;;12.05;4.50;;;10.30;99.90;;;;;;5018190;28;20057;-77
2022/05/12 05:21:56;;;;;;;12.25;4.88;;;9.90;99.90;;;;;;5025439;28;20069;-78
2022/05/12 05:24:23;;;;;;;12.25;5.05;;;10.00;99.90;;;;;;5002345;28;20116;-80
2022/05/12 05:26:48;;;;;;;10.65;4.47;;;11.40;99.90;;;;;;5002943;28;20396;-79
2022/05/12 05:29:14;;;;;;;15.10;5.10;;;10.10;99.90;;;;;;5020099;28;20043;-82
2022/05/12 05:31:40;;;;;;;16.10;4.78;;;10.10;99.90;;;;;;5025006;28;20127;-79
2022/05/12 05:34:09;;;;;;;13.43;5.38;;;10.30;99.90;;;;;;5027254;28;20388;-82
2022/05/12 05:36:35;;;;;;;15.77;5.93;;;10.40;99.90;;;;;;4318819;28;10000814;-80
2022/05/12 05:39:01;;;;;;;10.65;4.90;;;10.40;99.90;;;;;;5024730;28;20503;-78
2022/05/12 05:41:27;;;;;;;16.92;4.70;;;10.50;99.90;;;;;;5020309;28;20072;-77
2022/05/12 05:43:53;;;;;;;13.48;4.93;;;10.60;99.90;;;;;;4993250;28;20049;-77
2022/05/12 05:46:18;;;;;;;10.10;4.60;;;10.70;99.90;;;;;;5027256;28;20501;-78
2022/05/12 05:48:46;;;;;;;11.73;4.95;;;10.70;99.90;;;;;;5032378;28;20091;-78
2022/05/12 05:53:55;;;;;;;15.60;5.22;;;10.90;99.90;;;;;;5030688;28;20041;-77
2022/05/12 05:56:21;;;;;;;11.00;3.30;;;11.00;99.90;;;;;;5031014;28;20127;-78
2022/05/12 05:58:47;;;;;;;14.10;4.78;;;11.10;99.90;;;;;;5014843;28;20476;-79
2022/05/12 06:01:13;;;;;;;10.88;4.35;;;11.20;99.90;;;;;;4998851;28;20489;-80
2022/05/12 06:03:39;;;;;;;11.38;4.53;;;10.20;99.90;;;;;;5013292;28;20055;-80
2022/05/12 06:06:06;;;;;;;20.55;5.03;;;12.60;99.90;;;;;;5024528;28;20037;-79
2022/05/12 06:08:33;;;;;;;8.25;3.30;;;11.40;99.90;;;;;;5029551;28;20400;-78
2022/05/12 06:11:04;;;;;;;12.80;4.68;;;11.40;99.90;;;;;;5042688;28;20143;-82
2022/05/12 06:13:30;;;;;;;10.32;3.85;;;12.80;99.90;;;;;;5011067;28;20508;-83
2022/05/12 06:15:56;;;;;;;7.40;3.75;;;11.60;99.90;;;;;;5008504;28;20056;-83
2022/05/12 06:18:21;;;;;;;10.30;4.93;;;11.60;99.90;;;;;;5022357;28;20033;-80
2022/05/12 06:20:49;;;;;;;6.57;3.42;;;11.70;99.90;;;;;;5039616;28;20038;-86
2022/05/12 06:23:15;;;;;;;8.88;3.38;;;11.70;99.90;;;;;;5024129;28;20053;-84
2022/05/12 06:25:41;;;;;;;8.43;2.40;;;11.80;99.90;;;;;;5009110;28;20037;-87
2022/05/12 06:28:07;;;;;;;10.23;2.85;;;12.80;99.90;;;;;;5022539;28;20409;-86
2022/05/12 06:30:33;;;;;;;10.45;3.25;;;12.10;99.90;;;;;;5021323;28;20060;-82
2022/05/12 06:33:00;;;;;;;9.52;2.85;;;12.00;99.90;;;;;;5021517;28;20131;-84
2022/05/12 06:35:26;;;;;;;11.70;4.30;;;12.60;99.90;;;;;;5011216;28;20037;-82
2022/05/12 06:37:52;;;;;;;11.63;4.13;;;12.10;99.90;;;;;;5008166;28;20048;-81
2022/05/12 06:40:19;;;;;;;5.82;2.55;;;12.70;99.90;;;;;;5046060;28;20041;-76
2022/05/12 06:42:45;;;;;;;9.32;2.65;;;13.50;99.90;;;;;;5041458;28;20538;-84
2022/05/12 06:45:13;;;;;;;8.38;2.42;;;12.40;99.90;;;;;;5009528;28;20055;-84
2022/05/12 06:47:45;;;;;;;7.28;2.60;;;12.50;99.90;;;;;;5021273;28;20037;-71
2022/05/12 06:50:11;;;;;;;8.38;2.50;;;12.50;99.90;;;;;;5023187;28;20106;-76
2022/05/12 06:52:36;;;;;;;6.45;2.70;;;12.60;99.90;;;;;;5003982;28;20036;-88
2022/05/12 06:55:02;;;;;;;8.23;2.40;;;12.70;99.90;;;;;;5008623;28;20056;-77
2022/05/12 06:57:28;;;;;;;9.75;2.40;;;13.10;99.90;;;;;;5028037;28;20081;-81
2022/05/12 06:59:55;;;;;;;9.70;2.00;;;12.70;99.90;;;;;;5046587;28;20064;-87
2022/05/12 07:02:22;;;;;;;10.70;2.78;;;12.80;99.90;;;;;;5029501;28;20091;-81
2022/05/12 07:04:48;;;;;;;10.40;2.13;;;12.90;99.90;;;;;;5030122;28;20060;-88
2022/05/12 07:07:14;;;;;;;8.07;1.70;;;12.90;99.90;;;;;;5022635;28;20063;-87
2022/05/12 07:09:40;;;;;;;7.97;1.63;;;13.80;99.90;;;;;;5034564;28;20053;-77
2022/05/12 07:12:06;;;;;;;7.18;1.95;;;13.00;99.90;;;;;;5024835;28;20048;-89
2022/05/12 07:14:32;;;;;;;8.25;1.55;;;13.10;99.90;;;;;;5028135;28;20452;-80
2022/05/12 07:16:58;;;;;;;6.93;1.52;;;13.10;99.90;;;;;;5028021;28;20045;-88
2022/05/12 07:19:25;;;;;;;6.28;1.55;;;12.70;99.90;;;;;;5045386;28;20477;-78
2022/05/12 07:27:19;;;;;;;7.90;2.08;;;14.20;99.90;;;;;;5023931;28;20046;-85
2022/05/12 07:29:45;;;;;;;8.35;1.70;;;13.10;99.90;;;;;;5013270;28;20044;-85
2022/05/12 07:32:11;;;;;;;9.75;1.50;;;13.40;99.90;;;;;;5022724;28;20045;-78
2022/05/12 07:34:37;;;;;;;5.75;1.50;;;13.20;99.90;;;;;;5028077;28;20045;-85
2022/05/12 07:37:03;;;;;;;6.90;1.60;;;13.50;99.90;;;;;;5022744;28;20040;-77
2022/05/12 07:39:30;;;;;;;6.30;1.75;;;13.60;99.90;;;;;;5042656;28;20049;-88
2022/05/12 07:41:57;;;;;;;7.65;1.85;;;13.60;99.90;;;;;;5024054;28;20148;-77
2022/05/12 07:44:31;;;;;;;5.18;1.38;;;13.60;99.90;;;;;;5003699;28;20072;-81
2022/05/12 07:46:58;;;;;;;;;;;13.50;99.90;;;;;;5013330;28;20052;-77
2022/05/12 07:49:24;;;;;;;11.30;1.23;;;13.70;99.90;;;;;;5038563;28;19928;-81
2022/05/12 07:51:50;;;;;;;6.32;1.17;;;15.40;99.90;;;;;;5042444;28;20080;-80
2022/05/12 07:54:16;;;;;;;6.07;1.50;;;13.90;99.90;;;;;;5012182;28;20496;-89
2022/05/12 07:56:42;;;;;;;5.20;1.23;;;14.00;99.90;;;;;;5023586;28;20045;-86
2022/05/12 07:59:07;;;;;;;10.93;1.70;;;14.10;99.90;;;;;;5018640;28;20507;-79
2022/05/12 08:01:33;;;;;;;7.65;1.50;;;15.30;99.90;;;;;;5013411;28;20123;-76
2022/05/12 08:03:58;;;;;;;5.15;1.48;;;15.50;99.90;;;;;;5020810;28;20559;-84
2022/05/12 08:06:24;;;;;;;4.07;1.08;;;15.80;99.90;;;;;;5029058;28;20045;-83
2022/05/12 08:08:51;;;;;;;11.88;2.47;;;14.30;99.90;;;;;;5045630;28;20053;-79
2022/05/12 08:11:18;;;;;;;6.13;1.35;;;14.30;99.90;;;;;;5005090;28;20044;-89
2022/05/12 08:13:46;;;;;;;7.60;1.15;;;14.40;99.90;;;;;;5004990;28;20124;-81
2022/05/12 08:16:13;;;;;;;7.05;1.10;;;14.50;99.90;;;;;;5021752;28;20092;-78
2022/05/12 08:18:39;;;;;;;5.45;1.02;;;14.50;99.90;;;;;;5025683;28;20055;-86
2022/05/12 08:21:05;;;;;;;5.75;1.13;;;14.50;99.90;;;;;;5013367;28;20048;-83
2022/05/12 08:23:31;;;;;;;5.32;1.23;;;14.40;99.90;;;;;;5027662;28;20041;-86
2022/05/12 08:25:57;;;;;;;5.50;1.30;;;14.10;99.90;;;;;;5022594;28;20041;-85
2022/05/12 08:28:24;;;;;;;5.90;1.05;;;15.60;99.90;;;;;;5029375;28;20124;-86
2022/05/12 08:30:51;;;;;;;6.28;1.20;;;15.80;99.90;;;;;;5034348;28;20041;-86
2022/05/12 08:33:17;;;;;;;6.47;1.15;;;14.60;99.90;;;;;;5013673;28;20041;-86
2022/05/12 08:35:44;;;;;;;7.68;1.25;;;15.80;99.90;;;;;;5014793;28;20045;-87
2022/05/12 08:38:12;;;;;;;10.45;1.88;;;15.30;99.90;;;;;;5011493;28;20045;-80
2022/05/12 08:40:43;;;;;;;4.90;0.90;;;16.30;99.90;;;;;;5013617;28;20049;-85
2022/05/12 08:43:15;;;;;;;7.95;1.40;;;14.80;99.90;;;;;;5032309;28;20617;-84
2022/05/12 08:45:43;;;;;;;6.15;0.93;;;16.10;99.90;;;;;;5023358;28;20072;-87
2022/05/12 08:48:11;;;;;;;5.72;1.05;;;16.40;99.90;;;;;;5023068;28;20045;-86
2022/05/12 08:50:39;;;;;;;7.95;1.40;;;16.40;99.90;;;;;;5020820;28;20037;-83
2022/05/12 08:53:12;;;;;;;4.50;0.73;;;16.00;99.90;;;;;;5020869;28;20095;-85
2022/05/12 08:55:51;;;;;;;4.72;1.33;;;15.20;99.90;;;;;;5012985;28;20037;-87
2022/05/12 08:58:35;;;;;;;7.20;1.10;;;15.20;99.90;;;;;;5020841;28;20077;-87
2022/05/12 09:01:07;;;;;;;7.35;1.75;;;16.30;99.90;;;;;;5048223;28;20041;-78
2022/05/12 09:03:48;;;;;;;3.72;0.73;;;15.20;99.90;;;;;;5046151;28;20056;-83
2022/05/12 09:06:18;;;;;;;4.63;0.88;;;15.30;99.90;;;;;;5022009;28;20124;-79
2022/05/12 09:08:49;;;;;;;4.40;1.00;;;16.90;99.90;;;;;;5010212;28;20037;-77
2022/05/12 09:11:30;;;;;;;5.90;1.20;;;16.60;99.90;;;;;;5043471;28;20052;-83
2022/05/12 09:13:56;;;;;;;7.82;1.17;;;15.50;99.90;;;;;;5031292;28;20132;-77
2022/05/12 09:16:32;;;;;;;3.35;0.50;;;15.80;99.90;;;;;;5049864;28;20124;-76
2022/05/12 09:19:00;;;;;;;4.47;1.30;;;15.70;99.90;;;;;;5012789;28;20043;-80
2022/05/12 09:21:31;;;;;;;6.30;1.08;;;15.70;99.90;;;;;;5014658;28;20041;-76
2022/05/12 09:24:00;;;;;;;9.52;1.52;;;15.90;99.90;;;;;;5025868;28;20044;-79
2022/05/12 09:26:52;;;;;;;;;;;;;;;;;;;;;
2022/05/12 09:29:26;;;;;;;4.25;1.17;;;14.80;99.90;;;;;;5024931;28;20447;-81
2022/05/12 09:32:03;;;;;;;5.85;0.50;;;15.60;99.90;;;;;;5044856;28;20032;-77
2022/05/12 09:34:37;;;;;;;5.70;0.88;;;15.70;99.90;;;;;;5018764;28;20041;-79
2022/05/12 09:37:24;;;;;;;5.60;1.30;;;16.30;99.90;;;;;;5048227;28;20041;-78
2022/05/12 09:39:54;;;;;;;4.43;1.00;;;15.80;99.90;;;;;;5027986;28;20076;-80
2022/05/12 09:42:29;;;;;;;4.22;0.85;;;15.90;99.90;;;;;;5032356;28;20041;-79
2022/05/12 09:45:21;;;;;;;6.78;0.80;;;16.00;99.90;;;;;;5010147;28;20041;-79
2022/05/12 09:47:46;;;;;;;2.53;0.75;;;16.10;99.90;;;;;;5045048;28;20095;-80
2022/05/12 09:50:21;;;;;;;4.72;0.45;;;16.10;99.90;;;;;;5050972;28;20138;-80
2022/05/12 09:52:55;;;;;;;;;;;16.30;99.90;;;;;;5040748;28;20045;-78
2022/05/12 09:55:29;;;;;;;3.88;0.50;;;16.30;99.50;;;;;;5011700;28;19921;-80
2022/05/12 09:58:04;;;;;;;4.70;0.55;;;16.40;99.90;;;;;;5029841;28;20464;-80
2022/05/12 10:01:05;;;;;;;4.47;0.70;;;16.30;97.90;;;;;;5041056;28;20044;-77
2022/05/12 10:09:18;;;;;;;4.85;1.25;;;16.40;98.40;;;;;;5025177;28;20041;-81
2022/05/12 10:11:59;;;;;;;6.82;1.00;;;16.40;97.30;;;;;;5041325;28;20037;-81
2022/05/12 10:14:27;;;;;;;6.75;0.77;;;16.30;97.70;;;;;;5025154;28;20345;-82
2022/05/12 10:16:56;;;;;;;2.13;0.60;;;16.30;98.00;;;;;;5025995;28;20040;-80
2022/05/12 10:19:22;;;;;;;6.28;0.93;;;16.30;98.50;;;;;;5044577;28;20041;-79
2022/05/12 10:22:03;;;;;;;5.80;1.10;;;16.30;98.90;;;;;;5022559;28;20038;-82
2022/05/12 10:25:10;;;;;;;5.05;0.85;;;16.40;97.20;;;;;;5031072;28;20044;-82
2022/05/12 10:27:49;;;;;;;7.68;0.80;;;16.30;97.40;;;;;;5025407;28;20049;-80
2022/05/12 10:30:39;;;;;;;3.97;0.80;;;16.80;98.40;;;;;;5021618;28;20084;-81
2022/05/12 10:33:26;;;;;;;5.75;0.90;;;16.40;99.20;;;;;;5030346;28;20081;-73
2022/05/12 10:36:23;;;;;;;6.35;1.27;;;16.60;98.60;;;;;;5041416;28;20512;-72
2022/05/12 10:39:09;;;;;;;4.03;0.50;;;16.70;96.90;;;;;;5045144;28;20131;-86
2022/05/12 10:41:43;;;;;;;4.32;0.82;;;16.80;95.80;;;;;;5021796;28;20076;-89
2022/05/12 10:44:08;;;;;;;3.57;0.40;;;16.80;95.30;;;;;;5026397;28;20511;-87
2022/05/12 10:47:00;;;;;;;1.85;0.20;;;16.80;93.60;;;;;;5028142;28;20080;-77
2022/05/12 10:49:28;;;;;;;3.53;0.75;;;16.90;93.00;;;;;;5031096;28;20041;-88
2022/05/12 10:52:27;;;;;;;2.47;0.38;;;16.90;93.00;;;;;;5039349;28;20042;-77
2022/05/12 10:55:47;;;;;;;3.20;0.93;;;17.00;92.40;;;;;;5026812;28;20048;-78
2022/05/12 10:58:40;;;;;;;2.78;0.35;;;17.00;91.60;;;;;;4974174;28;20046;-79
2022/05/12 11:01:20;;;;;;;3.40;0.22;;;16.90;91.70;;;;;;5004576;28;20053;-81
2022/05/12 11:03:57;;;;;;;1.77;0.60;;;17.00;92.60;;;;;;5046409;28;20041;-78
2022/05/12 11:06:28;;;;;;;5.50;0.60;;;17.00;94.30;;;;;;5003747;28;20049;-80
2022/05/12 11:09:06;;;;;;;2.35;0.50;;;17.20;94.80;;;;;;5006547;28;20037;-79
2022/05/12 11:11:37;;;;;;;3.55;0.70;;;17.30;93.30;;;;;;5030180;28;20041;-79
2022/05/12 11:14:23;;;;;;;2.38;0.52;;;17.30;93.90;;;;;;5003333;28;20111;-79
2022/05/12 11:17:27;;;;;;;1.48;0.50;;;17.40;93.00;;;;;;5020745;28;20442;-81
2022/05/12 11:20:23;;;;;;;3.25;1.02;;;17.50;92.20;;;;;;5039578;28;20563;-79
2022/05/12 11:23:12;;;;;;;3.30;0.82;;;17.60;92.30;;;;;;5025893;28;20470;-73
2022/05/12 11:25:44;;;;;;;2.10;0.80;;;17.40;92.20;;;;;;5043947;28;20581;-81
2022/05/12 11:31:26;;;;;;;3.42;1.23;;;17.30;92.60;;;;;;5019269;28;20049;-80
2022/05/12 11:33:59;;;;;;;5.78;1.23;;;17.40;92.70;;;;;;5033588;28;20050;-78
2022/05/12 11:36:45;;;;;;;3.20;0.75;;;17.50;92.30;;;;;;5017748;28;20057;-76
2022/05/12 11:39:26;;;;;;;6.63;1.15;;;17.70;93.10;;;;;;5037231;28;20613;-77
2022/05/12 11:42:07;;;;;;;2.58;0.80;;;17.80;92.90;;;;;;5023311;28;20033;-78
2022/05/12 11:44:39;;;;;;;4.40;1.00;;;17.80;91.70;;;;;;5031565;28;20045;-80
2022/05/12 11:47:29;;;;;;;2.17;0.60;;;17.40;92.00;;;;;;5031863;28;20045;-79
2022/05/12 11:50:06;;;;;;;4.68;1.08;;;17.50;91.70;;;;;;5036341;28;20044;-78
2022/05/12 11:52:53;;;;;;;3.80;0.95;;;18.50;91.90;;;;;;5028929;28;20041;-79
2022/05/12 11:55:27;;;;;;;7.32;1.70;;;17.80;92.30;;;;;;5031380;28;20045;-80
2022/05/12 11:58:13;;;;;;;4.97;1.40;;;18.10;92.60;;;;;;5021627;28;20069;-78
2022/05/12 12:00:41;;;;;;;2.50;0.70;;;18.20;91.00;;;;;;5013076;28;20044;-79
2022/05/12 12:03:27;;;;;;;3.60;0.75;;;18.20;90.20;;;;;;5007992;28;20037;-80
2022/05/12 12:05:53;;;;;;;4.20;0.75;;;18.30;90.80;;;;;;5013126;28;20064;-78
2022/05/12 12:08:30;;;;;;;4.43;0.75;;;18.30;89.30;;;;;;5027937;28;20033;-79
2022/05/12 12:11:14;;;;;;;6.90;1.35;;;18.10;88.70;;;;;;5004303;28;20094;-77
2022/05/12 12:13:42;;;;;;;4.72;1.50;;;17.90;89.30;;;;;;5044367;28;20124;-79
2022/05/12 12:16:12;;;;;;;4.50;0.93;;;18.60;90.20;;;;;;5037202;28;20107;-78
2022/05/12 12:18:38;;;;;;;3.25;1.25;;;18.10;89.80;;;;;;5012603;28;20040;-79
2022/05/12 12:21:38;;;;;;;6.32;1.25;;;18.60;88.60;;;;;;5020286;28;20412;-78
2022/05/12 12:24:19;;;;;;;6.30;0.50;;;18.50;87.30;;;;;;5023885;28;20484;-79
2022/05/12 12:26:50;;;;;;;4.15;0.70;;;18.60;85.90;;;;;;5022896;28;20053;-78
2022/05/12 12:29:20;;;;;;;5.35;0.90;;;18.60;84.30;;;;;;5006600;28;20505;-80
2022/05/12 12:31:48;;;;;;;3.58;0.95;;;18.50;84.40;;;;;;5030512;28;20045;-78
2022/05/12 12:34:21;;;;;;;3.70;0.80;;;18.60;84.80;;;;;;5007849;28;20087;-78
2022/05/12 12:36:51;;;;;;;2.30;0.70;;;18.70;86.80;;;;;;5018114;28;20078;-79
2022/05/12 12:39:30;;;;;;;3.45;0.85;;;18.60;84.30;;;;;;5041893;28;20049;-79
2022/05/12 12:42:27;;;;;;;11.18;1.33;;;18.30;85.30;;;;;;5020895;28;20446;-78
2022/05/12 12:44:57;;;;;;;5.80;1.05;;;18.20;86.50;;;;;;5002490;28;20497;-78
2022/05/12 12:47:30;;;;;;;4.68;0.88;;;18.20;86.60;;;;;;5004871;28;20091;-80
2022/05/12 12:50:09;;;;;;;3.08;0.50;;;18.00;84.00;;;;;;5037735;28;20080;-79
2022/05/12 12:52:43;;;;;;;3.08;0.60;;;17.80;81.60;;;;;;5006589;28;20045;-79
2022/05/12 12:58:17;;;;;;;3.22;0.43;;;17.80;85.00;;;;;;5024913;28;20048;-80
2022/05/12 13:00:44;;;;;;;3.45;0.80;;;18.00;79.40;;;;;;4989998;28;20037;-79
2022/05/12 13:03:19;;;;;;;2.20;0.47;;;18.10;79.50;;;;;;5027402;28;20044;-79
2022/05/12 13:05:47;;;;;;;1.77;0.30;;;19.00;77.90;;;;;;5046043;28;20048;-79
2022/05/12 13:08:28;;;;;;;3.30;0.63;;;18.40;77.30;;;;;;5040217;28;20099;-79
2022/05/12 13:11:02;;;;;;;1.45;0.50;;;18.70;74.90;;;;;;5020186;28;20032;-79
2022/05/12 13:13:28;;;;;;;3.03;0.45;;;18.70;75.00;;;;;;5020678;28;20095;-79
2022/05/12 13:16:03;;;;;;;1.52;0.40;;;18.60;73.50;;;;;;5040180;28;20061;-79
2022/05/12 13:18:31;;;;;;;2.53;0.40;;;18.70;72.20;;;;;;5006847;28;20523;-80
2022/05/12 13:20:59;;;;;;;3.38;0.80;;;18.80;71.60;;;;;;5016672;28;20497;-79
2022/05/12 13:23:30;;;;;;;3.38;0.63;;;18.90;71.40;;;;;;5026924;28;20069;-79
2022/05/12 13:25:58;;;;;;;3.35;0.63;;;19.00;70.90;;;;;;5005488;28;20132;-79